createdAt,value
2019-05-15T00:02:43.434Z,66.21
2019-05-15T00:08:48.154Z,67.20
2019-05-15T00:14:52.788Z,67.92
2019-05-15T00:20:59.479Z,67.54
2019-05-15T00:27:03.823Z,67.64
2019-05-15T00:33:09.283Z,68.73
2019-05-15T00:39:13.959Z,69.10
2019-05-15T00:45:19.533Z,70.06
2019-05-15T00:51:24.101Z,71.48
2019-05-15T00:57:28.621Z,71.74
2019-05-15T01:03:33.163Z,71.84
2019-05-15T01:09:38.455Z,71.60
2019-05-15T01:15:43.227Z,71.60
2019-05-15T01:21:48.232Z,71.49
2019-05-15T01:27:53.180Z,70.59
2019-05-15T01:33:58.381Z,69.92
2019-05-15T01:40:03.061Z,70.65
2019-05-15T01:46:08.365Z,70.68
2019-05-15T01:52:13.263Z,70.54
2019-05-15T01:58:18.612Z,70.29
2019-05-15T02:04:23.570Z,70.59
2019-05-15T02:10:29.163Z,70.96
2019-05-15T02:16:34.092Z,71.52
2019-05-15T02:22:42.531Z,71.05
2019-05-15T02:28:45.149Z,71.63
2019-05-15T02:34:50.183Z,72.59
2019-05-15T02:40:54.962Z,72.34
2019-05-15T02:47:01.178Z,72.70
2019-05-15T02:53:09.493Z,72.76
2019-05-15T02:59:12.119Z,71.84
2019-05-15T03:05:19.374Z,72.92
2019-05-15T03:11:23.125Z,73.45
2019-05-15T03:17:29.725Z,73.95
2019-05-15T03:23:34.064Z,73.82
2019-05-15T03:29:40.354Z,73.36
2019-05-15T03:35:45.243Z,72.90
2019-05-15T03:41:49.900Z,73.51
2019-05-15T03:47:54.514Z,73.36
2019-05-15T03:54:00.348Z,73.00
2019-05-15T04:00:09.599Z,72.97
2019-05-15T04:06:13.951Z,74.00
2019-05-15T04:12:19.633Z,74.05
2019-05-15T04:18:24.462Z,73.58
2019-05-15T04:24:31.407Z,73.20
2019-05-15T04:30:38.934Z,72.90
2019-05-15T04:36:44.836Z,72.61
2019-05-15T04:42:49.966Z,71.60
2019-05-15T04:48:54.641Z,70.16
2019-05-15T04:54:59.864Z,69.85
2019-05-15T05:01:08.975Z,68.61
2019-05-15T05:07:12.324Z,67.95
2019-05-15T05:13:19.432Z,67.32
2019-05-15T05:19:23.288Z,66.01
2019-05-15T05:25:28.054Z,65.63
2019-05-15T05:31:32.665Z,64.32
2019-05-15T05:37:38.899Z,63.95
2019-05-15T05:43:44.137Z,65.51
2019-05-15T05:49:48.936Z,64.99
2019-05-15T05:55:58.048Z,64.39
2019-05-15T06:02:03.037Z,64.01
2019-05-15T06:08:08.896Z,63.29
2019-05-15T06:14:13.438Z,62.81
2019-05-15T06:20:18.590Z,62.96
2019-05-15T06:26:23.274Z,63.37
2019-05-15T06:32:28.909Z,61.00
2019-05-15T06:38:33.713Z,56.42
2019-05-15T06:44:38.790Z,57.75
2019-05-15T06:50:43.760Z,54.55
2019-05-15T06:56:49.284Z,55.76
2019-05-15T07:02:54.069Z,52.88
2019-05-15T07:08:58.954Z,54.04
2019-05-15T07:15:05.113Z,50.22
2019-05-15T07:21:10.613Z,48.66
2019-05-15T07:27:15.364Z,43.98
2019-05-15T07:33:35.317Z,44.09
2019-05-15T07:39:28.706Z,43.76
2019-05-15T07:45:32.584Z,41.93
2019-05-15T07:51:38.179Z,39.64
2019-05-15T07:57:42.866Z,37.12
2019-05-15T08:03:58.678Z,36.75
2019-05-15T08:09:53.806Z,34.48
2019-05-15T08:15:58.397Z,35.59
2019-05-15T08:22:08.743Z,33.77
2019-05-15T08:28:12.593Z,34.56
2019-05-15T08:34:19.489Z,35.14
2019-05-15T08:40:23.770Z,35.57
2019-05-15T08:46:28.412Z,34.54
2019-05-15T08:52:33.050Z,36.05
2019-05-15T08:58:39.057Z,33.84
2019-05-15T09:04:43.624Z,34.56
2019-05-15T09:10:50.220Z,36.10
2019-05-15T09:16:54.786Z,34.48
2019-05-15T09:22:59.343Z,35.46
2019-05-15T09:29:09.150Z,34.29
2019-05-15T09:35:18.598Z,33.25
2019-05-15T09:41:28.731Z,33.81
2019-05-15T09:47:33.378Z,33.54
2019-05-15T09:53:39.449Z,33.06
2019-05-15T09:59:44.218Z,32.72
2019-05-15T10:05:51.681Z,32.60
2019-05-15T10:11:56.250Z,32.20
2019-05-15T10:18:04.064Z,31.84
2019-05-15T10:24:13.516Z,30.96
2019-05-15T10:30:19.161Z,32.94
2019-05-15T10:36:23.765Z,31.84
2019-05-15T10:42:29.393Z,32.22
2019-05-15T10:48:34.008Z,31.09
2019-05-15T10:54:39.414Z,29.54
2019-05-15T11:00:48.988Z,30.90
2019-05-15T11:06:53.906Z,32.48
2019-05-15T11:13:00.997Z,32.33
2019-05-15T11:19:07.899Z,32.31
2019-05-15T11:25:12.436Z,32.63
2019-05-15T11:31:17.075Z,32.72
2019-05-15T11:37:21.807Z,31.89
2019-05-15T11:43:29.220Z,33.17
2019-05-15T11:49:38.263Z,33.13
2019-05-15T11:55:42.315Z,34.37
2019-05-15T12:01:48.921Z,34.95
2019-05-15T12:07:54.635Z,35.05
2019-05-15T12:13:59.729Z,34.13
2019-05-15T12:20:07.096Z,35.02
2019-05-15T12:26:12.512Z,36.41
2019-05-15T12:32:28.469Z,34.36
2019-05-15T12:38:23.483Z,36.49
2019-05-15T13:02:49.170Z,35.60
2019-05-15T13:08:53.885Z,35.91
2019-05-15T13:14:59.086Z,35.87
2019-05-15T13:21:03.860Z,36.10
2019-05-15T13:27:08.426Z,35.45
2019-05-15T13:33:12.983Z,36.15
2019-05-15T13:39:18.390Z,37.62
2019-05-15T13:45:23.436Z,38.18
2019-05-15T13:51:29.022Z,38.94
2019-05-15T13:57:33.813Z,37.57
2019-05-15T14:03:39.037Z,38.04
2019-05-15T14:09:44.743Z,35.58
2019-05-15T14:15:49.565Z,37.25
2019-05-15T14:21:54.199Z,37.48
2019-05-15T14:27:59.611Z,38.30
2019-05-15T14:34:04.553Z,38.05
2019-05-15T14:40:09.910Z,39.02
2019-05-15T14:46:14.729Z,40.26
2019-05-15T14:52:19.345Z,39.80
2019-05-15T14:58:23.905Z,39.69
2019-05-15T15:04:29.149Z,40.12
2019-05-15T15:10:33.789Z,37.01
2019-05-15T15:16:38.640Z,41.54
2019-05-15T15:22:43.296Z,40.17
2019-05-15T15:28:48.897Z,40.92
2019-05-15T15:34:53.739Z,42.22
2019-05-15T15:41:00.484Z,43.82
2019-05-15T15:47:04.789Z,41.97
2019-05-15T15:53:09.442Z,40.83
2019-05-15T15:59:14.010Z,39.11
2019-05-15T16:05:19.180Z,39.34
2019-05-15T16:11:23.946Z,36.64
2019-05-15T16:17:28.754Z,39.72
2019-05-15T16:23:33.286Z,40.33
2019-05-15T16:29:39.259Z,38.41
2019-05-15T16:35:44.084Z,41.01
2019-05-15T16:41:49.123Z,37.99
2019-05-15T16:47:53.804Z,36.96
2019-05-15T16:53:58.381Z,38.74
2019-05-15T17:00:03.008Z,38.75
2019-05-15T17:06:09.458Z,38.23
2019-05-15T17:12:14.097Z,39.14
2019-05-15T17:18:18.666Z,38.43
2019-05-15T17:24:23.253Z,39.94
2019-05-15T17:30:28.773Z,38.80
2019-05-15T17:36:33.466Z,38.09
2019-05-15T17:42:38.830Z,39.55
2019-05-15T17:48:43.937Z,39.37
2019-05-15T17:54:49.142Z,39.83
2019-05-15T18:00:54.021Z,39.65
2019-05-15T18:06:59.206Z,40.48
2019-05-15T18:13:03.915Z,42.21
2019-05-15T18:19:08.736Z,42.06
2019-05-15T18:25:13.436Z,40.69
2019-05-15T18:31:18.263Z,40.96
2019-05-15T18:37:22.928Z,41.08
2019-05-15T18:43:28.477Z,41.01
2019-05-15T18:49:33.207Z,40.91
2019-05-15T18:55:38.549Z,43.26
2019-05-15T19:01:43.372Z,46.10
2019-05-15T19:07:48.724Z,48.33
2019-05-15T19:13:53.523Z,48.05
2019-05-15T19:19:58.754Z,49.29
2019-05-15T19:26:03.485Z,43.80
2019-05-15T19:32:10.988Z,41.14
2019-05-15T19:38:14.530Z,42.25
2019-05-15T19:44:19.241Z,41.94
2019-05-15T19:50:23.946Z,40.97
2019-05-15T19:56:28.646Z,40.70
2019-05-15T20:02:33.207Z,42.35
2019-05-15T20:08:38.590Z,46.89
2019-05-15T20:14:43.311Z,48.03
2019-05-15T20:20:47.926Z,49.97
2019-05-15T20:26:52.492Z,51.08
2019-05-15T20:32:58.555Z,48.79
2019-05-15T20:39:03.535Z,49.95
2019-05-15T20:45:12.341Z,53.01
2019-05-15T20:51:15.586Z,51.51
2019-05-15T20:57:20.319Z,52.04
2019-05-15T21:03:25.015Z,51.41
2019-05-15T21:09:30.691Z,45.79
2019-05-15T21:15:35.567Z,45.55
2019-05-15T21:21:40.130Z,50.18
2019-05-15T21:27:44.713Z,47.34
2019-05-15T21:33:50.416Z,50.64
2019-05-15T21:39:55.118Z,47.08
2019-05-15T21:46:01.227Z,48.27
2019-05-15T21:52:05.827Z,47.53
2019-05-15T21:58:10.451Z,49.95
2019-05-15T22:04:15.203Z,47.81
2019-05-15T22:10:19.904Z,44.78
2019-05-15T22:16:24.874Z,41.94
2019-05-15T22:22:29.413Z,41.73
2019-05-15T22:28:34.044Z,41.76
2019-05-15T22:34:38.587Z,42.99
2019-05-15T22:40:43.686Z,43.27
2019-05-15T22:46:48.733Z,41.48
2019-05-15T22:52:53.592Z,41.14
2019-05-15T22:58:58.475Z,40.70
2019-05-15T23:05:03.337Z,42.57
2019-05-15T23:11:09.473Z,41.76
2019-05-15T23:17:14.372Z,41.96
2019-05-15T23:23:18.914Z,41.31
2019-05-15T23:29:25.386Z,42.40
2019-05-15T23:35:37.936Z,42.35
2019-05-15T23:41:36.127Z,43.69
2019-05-15T23:47:40.810Z,45.01
2019-05-15T23:53:45.342Z,44.86
2019-05-15T23:59:49.892Z,45.57
